sensor_id;sensor_type;location;lat;lon;timestamp;temperature;humidity
2463;DHT22;1243;54.298;10.172;2023-07-24T00:01:21;16.60;99.90
2463;DHT22;1243;54.298;10.172;2023-07-24T00:03:48;16.60;99.90
2463;DHT22;1243;54.298;10.172;2023-07-24T00:06:15;16.70;99.90
2463;DHT22;1243;54.298;10.172;2023-07-24T00:08:42;16.60;99.90
2463;DHT22;1243;54.298;10.172;2023-07-24T00:11:10;16.60;99.90
2463;DHT22;1243;54.298;10.172;2023-07-24T00:13:37;16.60;99.90
2463;DHT22;1243;54.298;10.172;2023-07-24T00:16:07;16.60;99.90
2463;DHT22;1243;54.298;10.172;2023-07-24T00:18:34;16.60;99.90
2463;DHT22;1243;54.298;10.172;2023-07-24T00:21:01;16.60;99.90
2463;DHT22;1243;54.298;10.172;2023-07-24T00:23:27;16.60;99.90
2463;DHT22;1243;54.298;10.172;2023-07-24T00:25:55;16.60;99.90
2463;DHT22;1243;54.298;10.172;2023-07-24T00:28:21;16.60;99.90
2463;DHT22;1243;54.298;10.172;2023-07-24T00:30:49;16.60;99.90
2463;DHT22;1243;54.298;10.172;2023-07-24T00:33:16;16.60;99.90
2463;DHT22;1243;54.298;10.172;2023-07-24T00:35:42;16.60;99.90
2463;DHT22;1243;54.298;10.172;2023-07-24T00:38:07;16.70;99.90
2463;DHT22;1243;54.298;10.172;2023-07-24T00:40:33;16.70;99.90
2463;DHT22;1243;54.298;10.172;2023-07-24T00:43:01;16.60;99.90
2463;DHT22;1243;54.298;10.172;2023-07-24T00:45:28;16.70;99.90
2463;DHT22;1243;54.298;10.172;2023-07-24T00:47:55;16.70;99.90
2463;DHT22;1243;54.298;10.172;2023-07-24T00:50:22;16.70;99.90
2463;DHT22;1243;54.298;10.172;2023-07-24T00:52:49;16.70;99.90
2463;DHT22;1243;54.298;10.172;2023-07-24T00:55:15;16.70;99.90
2463;DHT22;1243;54.298;10.172;2023-07-24T00:57:43;16.70;99.90
2463;DHT22;1243;54.298;10.172;2023-07-24T01:00:10;16.80;99.90
2463;DHT22;1243;54.298;10.172;2023-07-24T01:02:37;16.80;99.90
2463;DHT22;1243;54.298;10.172;2023-07-24T01:05:05;16.80;99.90
2463;DHT22;1243;54.298;10.172;2023-07-24T01:07:34;16.80;99.90
2463;DHT22;1243;54.298;10.172;2023-07-24T01:10:01;16.80;99.90
2463;DHT22;1243;54.298;10.172;2023-07-24T01:15:34;16.80;99.90
2463;DHT22;1243;54.298;10.172;2023-07-24T01:18:13;16.80;99.90
2463;DHT22;1243;54.298;10.172;2023-07-24T01:20:48;16.80;99.90
2463;DHT22;1243;54.298;10.172;2023-07-24T01:25:56;16.80;99.90
2463;DHT22;1243;54.298;10.172;2023-07-24T01:28:27;16.80;99.90
2463;DHT22;1243;54.298;10.172;2023-07-24T01:30:54;16.80;99.90
2463;DHT22;1243;54.298;10.172;2023-07-24T01:33:20;16.70;99.90
2463;DHT22;1243;54.298;10.172;2023-07-24T01:35:50;16.70;99.90
2463;DHT22;1243;54.298;10.172;2023-07-24T01:38:19;16.70;99.90
2463;DHT22;1243;54.298;10.172;2023-07-24T01:40:47;16.80;99.90
2463;DHT22;1243;54.298;10.172;2023-07-24T01:43:13;16.80;99.90
2463;DHT22;1243;54.298;10.172;2023-07-24T01:45:40;16.80;99.90
2463;DHT22;1243;54.298;10.172;2023-07-24T01:48:06;16.80;99.90
2463;DHT22;1243;54.298;10.172;2023-07-24T01:50:33;16.70;99.90
2463;DHT22;1243;54.298;10.172;2023-07-24T01:52:59;16.80;99.90
2463;DHT22;1243;54.298;10.172;2023-07-24T01:55:26;16.80;99.90
2463;DHT22;1243;54.298;10.172;2023-07-24T01:57:52;16.80;99.90
2463;DHT22;1243;54.298;10.172;2023-07-24T02:00:19;16.80;99.90
2463;DHT22;1243;54.298;10.172;2023-07-24T02:02:45;16.80;99.90
2463;DHT22;1243;54.298;10.172;2023-07-24T02:05:12;16.80;99.90
2463;DHT22;1243;54.298;10.172;2023-07-24T02:07:39;16.80;99.90
2463;DHT22;1243;54.298;10.172;2023-07-24T02:10:06;16.80;99.90
2463;DHT22;1243;54.298;10.172;2023-07-24T02:12:32;16.90;99.90
2463;DHT22;1243;54.298;10.172;2023-07-24T02:15:01;16.90;99.90
2463;DHT22;1243;54.298;10.172;2023-07-24T02:17:27;16.90;99.90
2463;DHT22;1243;54.298;10.172;2023-07-24T02:19:54;16.90;99.90
2463;DHT22;1243;54.298;10.172;2023-07-24T02:22:20;17.00;99.90
2463;DHT22;1243;54.298;10.172;2023-07-24T02:24:47;17.00;99.90
2463;DHT22;1243;54.298;10.172;2023-07-24T02:27:30;17.00;99.90
2463;DHT22;1243;54.298;10.172;2023-07-24T02:30:02;17.00;99.90
2463;DHT22;1243;54.298;10.172;2023-07-24T02:32:29;17.00;99.90
2463;DHT22;1243;54.298;10.172;2023-07-24T02:34:58;17.00;99.90
2463;DHT22;1243;54.298;10.172;2023-07-24T02:37:23;17.00;99.90
2463;DHT22;1243;54.298;10.172;2023-07-24T02:39:49;17.10;99.90
2463;DHT22;1243;54.298;10.172;2023-07-24T02:42:15;17.10;99.90
2463;DHT22;1243;54.298;10.172;2023-07-24T02:44:40;17.10;99.90
2463;DHT22;1243;54.298;10.172;2023-07-24T02:47:07;17.10;99.90
2463;DHT22;1243;54.298;10.172;2023-07-24T02:49:34;17.20;99.90
2463;DHT22;1243;54.298;10.172;2023-07-24T02:52:05;17.20;99.90
2463;DHT22;1243;54.298;10.172;2023-07-24T02:54:32;17.20;99.90
2463;DHT22;1243;54.298;10.172;2023-07-24T02:57:01;17.20;99.90
2463;DHT22;1243;54.298;10.172;2023-07-24T02:59:30;17.20;99.90
2463;DHT22;1243;54.298;10.172;2023-07-24T03:01:59;17.20;99.90
2463;DHT22;1243;54.298;10.172;2023-07-24T03:04:24;17.30;99.90
2463;DHT22;1243;54.298;10.172;2023-07-24T03:06:51;17.30;99.90
2463;DHT22;1243;54.298;10.172;2023-07-24T03:09:18;17.30;99.90
2463;DHT22;1243;54.298;10.172;2023-07-24T03:11:45;17.30;99.90
2463;DHT22;1243;54.298;10.172;2023-07-24T03:14:11;17.30;99.90
2463;DHT22;1243;54.298;10.172;2023-07-24T03:16:37;17.30;99.90
2463;DHT22;1243;54.298;10.172;2023-07-24T03:19:02;17.30;99.90
2463;DHT22;1243;54.298;10.172;2023-07-24T03:21:30;17.40;99.90
2463;DHT22;1243;54.298;10.172;2023-07-24T03:23:56;17.30;99.90
2463;DHT22;1243;54.298;10.172;2023-07-24T03:26:23;17.40;99.90
2463;DHT22;1243;54.298;10.172;2023-07-24T03:28:49;17.40;99.90
2463;DHT22;1243;54.298;10.172;2023-07-24T03:31:17;17.40;99.90
2463;DHT22;1243;54.298;10.172;2023-07-24T03:33:44;17.40;99.90
2463;DHT22;1243;54.298;10.172;2023-07-24T03:36:10;17.40;99.90
2463;DHT22;1243;54.298;10.172;2023-07-24T03:38:39;17.50;99.90
2463;DHT22;1243;54.298;10.172;2023-07-24T03:41:05;17.40;99.90
2463;DHT22;1243;54.298;10.172;2023-07-24T03:43:32;17.50;99.90
2463;DHT22;1243;54.298;10.172;2023-07-24T03:45:58;17.40;99.90
2463;DHT22;1243;54.298;10.172;2023-07-24T03:48:24;17.40;99.90
2463;DHT22;1243;54.298;10.172;2023-07-24T03:50:57;17.40;99.90
2463;DHT22;1243;54.298;10.172;2023-07-24T03:53:23;17.50;99.90
2463;DHT22;1243;54.298;10.172;2023-07-24T03:55:49;17.50;99.90
2463;DHT22;1243;54.298;10.172;2023-07-24T03:58:14;17.50;99.90
2463;DHT22;1243;54.298;10.172;2023-07-24T04:00:40;17.50;99.90
2463;DHT22;1243;54.298;10.172;2023-07-24T04:03:06;17.50;99.90
2463;DHT22;1243;54.298;10.172;2023-07-24T04:05:35;17.50;99.90
2463;DHT22;1243;54.298;10.172;2023-07-24T04:08:02;17.50;99.90
2463;DHT22;1243;54.298;10.172;2023-07-24T04:10:28;17.50;99.90
2463;DHT22;1243;54.298;10.172;2023-07-24T04:12:54;17.50;99.90
2463;DHT22;1243;54.298;10.172;2023-07-24T04:15:20;17.50;99.90
2463;DHT22;1243;54.298;10.172;2023-07-24T04:17:46;17.50;99.90
2463;DHT22;1243;54.298;10.172;2023-07-24T04:20:12;17.50;99.90
2463;DHT22;1243;54.298;10.172;2023-07-24T04:22:38;17.50;99.90
2463;DHT22;1243;54.298;10.172;2023-07-24T04:25:03;17.50;99.90
2463;DHT22;1243;54.298;10.172;2023-07-24T04:27:29;17.50;99.90
2463;DHT22;1243;54.298;10.172;2023-07-24T04:29:55;17.50;99.90
2463;DHT22;1243;54.298;10.172;2023-07-24T04:32:21;17.50;99.90
2463;DHT22;1243;54.298;10.172;2023-07-24T04:34:48;17.50;99.90
2463;DHT22;1243;54.298;10.172;2023-07-24T04:37:13;17.50;99.90
2463;DHT22;1243;54.298;10.172;2023-07-24T04:39:39;17.50;99.90
2463;DHT22;1243;54.298;10.172;2023-07-24T04:42:06;17.50;99.90
2463;DHT22;1243;54.298;10.172;2023-07-24T04:44:32;17.50;99.90
2463;DHT22;1243;54.298;10.172;2023-07-24T04:46:58;17.50;99.90
2463;DHT22;1243;54.298;10.172;2023-07-24T04:49:24;17.50;99.90
2463;DHT22;1243;54.298;10.172;2023-07-24T04:51:51;17.50;99.90
2463;DHT22;1243;54.298;10.172;2023-07-24T04:54:17;17.50;99.90
2463;DHT22;1243;54.298;10.172;2023-07-24T04:56:43;17.60;99.90
2463;DHT22;1243;54.298;10.172;2023-07-24T04:59:09;17.60;99.90
2463;DHT22;1243;54.298;10.172;2023-07-24T05:01:34;17.60;99.90
2463;DHT22;1243;54.298;10.172;2023-07-24T05:04:00;17.70;99.90
2463;DHT22;1243;54.298;10.172;2023-07-24T05:06:26;17.60;99.90
2463;DHT22;1243;54.298;10.172;2023-07-24T05:08:52;17.70;99.90
2463;DHT22;1243;54.298;10.172;2023-07-24T05:11:18;17.60;99.90
2463;DHT22;1243;54.298;10.172;2023-07-24T05:13:44;17.70;99.90
2463;DHT22;1243;54.298;10.172;2023-07-24T05:16:10;17.70;99.90
2463;DHT22;1243;54.298;10.172;2023-07-24T05:18:36;17.70;99.90
2463;DHT22;1243;54.298;10.172;2023-07-24T05:21:01;17.70;99.90
2463;DHT22;1243;54.298;10.172;2023-07-24T05:23:27;17.70;99.90
2463;DHT22;1243;54.298;10.172;2023-07-24T05:26:00;17.70;99.90
2463;DHT22;1243;54.298;10.172;2023-07-24T05:28:27;17.80;99.90
2463;DHT22;1243;54.298;10.172;2023-07-24T05:30:53;17.80;99.90
2463;DHT22;1243;54.298;10.172;2023-07-24T05:33:20;17.80;99.90
2463;DHT22;1243;54.298;10.172;2023-07-24T05:35:48;17.80;99.90
2463;DHT22;1243;54.298;10.172;2023-07-24T05:38:15;17.80;99.90
2463;DHT22;1243;54.298;10.172;2023-07-24T05:40:41;17.80;99.90
2463;DHT22;1243;54.298;10.172;2023-07-24T05:43:06;17.80;99.90
2463;DHT22;1243;54.298;10.172;2023-07-24T05:45:32;17.80;99.90
2463;DHT22;1243;54.298;10.172;2023-07-24T05:47:58;17.80;99.90
2463;DHT22;1243;54.298;10.172;2023-07-24T05:50:23;17.80;99.90
2463;DHT22;1243;54.298;10.172;2023-07-24T05:52:49;17.80;99.90
2463;DHT22;1243;54.298;10.172;2023-07-24T05:55:16;17.80;99.90
2463;DHT22;1243;54.298;10.172;2023-07-24T05:57:42;17.90;99.90
2463;DHT22;1243;54.298;10.172;2023-07-24T06:00:07;17.90;99.90
2463;DHT22;1243;54.298;10.172;2023-07-24T06:02:33;18.00;99.90
2463;DHT22;1243;54.298;10.172;2023-07-24T06:04:59;18.00;99.90
2463;DHT22;1243;54.298;10.172;2023-07-24T06:07:25;18.10;99.90
2463;DHT22;1243;54.298;10.172;2023-07-24T06:09:50;18.00;99.90
2463;DHT22;1243;54.298;10.172;2023-07-24T06:12:16;18.10;99.90
2463;DHT22;1243;54.298;10.172;2023-07-24T06:14:42;18.20;99.90
2463;DHT22;1243;54.298;10.172;2023-07-24T06:17:07;18.30;99.90
2463;DHT22;1243;54.298;10.172;2023-07-24T06:19:33;18.40;99.90
2463;DHT22;1243;54.298;10.172;2023-07-24T06:21:59;18.40;99.90
2463;DHT22;1243;54.298;10.172;2023-07-24T06:24:25;18.50;99.90
2463;DHT22;1243;54.298;10.172;2023-07-24T06:26:50;18.50;99.90
2463;DHT22;1243;54.298;10.172;2023-07-24T06:29:16;18.60;99.90
2463;DHT22;1243;54.298;10.172;2023-07-24T06:31:42;18.60;99.90
2463;DHT22;1243;54.298;10.172;2023-07-24T06:34:08;18.70;94.90
2463;DHT22;1243;54.298;10.172;2023-07-24T06:36:33;18.70;75.60
2463;DHT22;1243;54.298;10.172;2023-07-24T06:38:59;18.70;54.10
2463;DHT22;1243;54.298;10.172;2023-07-24T06:41:25;18.70;53.40
2463;DHT22;1243;54.298;10.172;2023-07-24T06:43:51;18.70;41.30
2463;DHT22;1243;54.298;10.172;2023-07-24T06:46:17;18.80;41.00
2463;DHT22;1243;54.298;10.172;2023-07-24T06:48:43;18.80;13.10
2463;DHT22;1243;54.298;10.172;2023-07-24T06:51:08;18.80;11.10
2463;DHT22;1243;54.298;10.172;2023-07-24T06:53:34;18.80;5.30
2463;DHT22;1243;54.298;10.172;2023-07-24T06:56:01;18.90;1.00
2463;DHT22;1243;54.298;10.172;2023-07-24T06:58:26;19.00;1.00
2463;DHT22;1243;54.298;10.172;2023-07-24T07:00:52;19.00;1.00
2463;DHT22;1243;54.298;10.172;2023-07-24T07:03:18;19.00;1.00
2463;DHT22;1243;54.298;10.172;2023-07-24T07:05:43;18.90;1.00
2463;DHT22;1243;54.298;10.172;2023-07-24T07:08:12;18.80;1.00
2463;DHT22;1243;54.298;10.172;2023-07-24T07:10:38;18.80;1.00
2463;DHT22;1243;54.298;10.172;2023-07-24T07:13:03;18.80;1.00
2463;DHT22;1243;54.298;10.172;2023-07-24T07:15:29;18.70;1.00
2463;DHT22;1243;54.298;10.172;2023-07-24T07:17:55;18.70;1.00
2463;DHT22;1243;54.298;10.172;2023-07-24T07:20:20;18.50;1.00
2463;DHT22;1243;54.298;10.172;2023-07-24T07:22:46;18.60;1.00
2463;DHT22;1243;54.298;10.172;2023-07-24T07:25:12;18.50;1.00
2463;DHT22;1243;54.298;10.172;2023-07-24T07:27:37;18.60;1.00
2463;DHT22;1243;54.298;10.172;2023-07-24T07:30:03;18.60;1.00
2463;DHT22;1243;54.298;10.172;2023-07-24T07:32:29;18.60;1.00
2463;DHT22;1243;54.298;10.172;2023-07-24T07:34:55;18.60;1.00
2463;DHT22;1243;54.298;10.172;2023-07-24T07:37:21;18.70;1.00
2463;DHT22;1243;54.298;10.172;2023-07-24T07:39:47;18.70;1.00
2463;DHT22;1243;54.298;10.172;2023-07-24T07:42:12;18.70;1.00
2463;DHT22;1243;54.298;10.172;2023-07-24T07:44:38;18.70;1.00
2463;DHT22;1243;54.298;10.172;2023-07-24T07:47:04;18.70;1.00
2463;DHT22;1243;54.298;10.172;2023-07-24T07:49:29;18.70;1.00
2463;DHT22;1243;54.298;10.172;2023-07-24T07:51:55;18.80;1.00
2463;DHT22;1243;54.298;10.172;2023-07-24T07:54:21;18.70;1.00
2463;DHT22;1243;54.298;10.172;2023-07-24T07:56:46;18.70;1.00
2463;DHT22;1243;54.298;10.172;2023-07-24T07:59:12;18.60;1.00
2463;DHT22;1243;54.298;10.172;2023-07-24T08:01:38;18.60;1.00
2463;DHT22;1243;54.298;10.172;2023-07-24T08:04:05;18.80;1.00
2463;DHT22;1243;54.298;10.172;2023-07-24T08:06:30;18.80;1.00
2463;DHT22;1243;54.298;10.172;2023-07-24T08:08:56;18.70;1.00
2463;DHT22;1243;54.298;10.172;2023-07-24T08:11:23;18.70;1.00
2463;DHT22;1243;54.298;10.172;2023-07-24T08:13:49;18.70;1.00
2463;DHT22;1243;54.298;10.172;2023-07-24T08:16:15;18.70;1.00
2463;DHT22;1243;54.298;10.172;2023-07-24T08:18:46;18.60;1.00
2463;DHT22;1243;54.298;10.172;2023-07-24T08:21:12;18.60;1.00
2463;DHT22;1243;54.298;10.172;2023-07-24T08:23:39;18.70;1.00
2463;DHT22;1243;54.298;10.172;2023-07-24T08:26:05;18.60;1.00
2463;DHT22;1243;54.298;10.172;2023-07-24T08:28:31;18.60;1.00
2463;DHT22;1243;54.298;10.172;2023-07-24T08:30:58;18.60;1.00
2463;DHT22;1243;54.298;10.172;2023-07-24T08:33:24;18.60;1.00
2463;DHT22;1243;54.298;10.172;2023-07-24T08:36:04;18.60;1.00
2463;DHT22;1243;54.298;10.172;2023-07-24T08:38:30;18.60;1.00
2463;DHT22;1243;54.298;10.172;2023-07-24T08:41:05;18.60;1.00
2463;DHT22;1243;54.298;10.172;2023-07-24T08:43:32;18.50;1.00
2463;DHT22;1243;54.298;10.172;2023-07-24T08:45:59;18.40;1.00
2463;DHT22;1243;54.298;10.172;2023-07-24T08:48:29;18.40;1.00
2463;DHT22;1243;54.298;10.172;2023-07-24T08:50:56;18.40;1.00
2463;DHT22;1243;54.298;10.172;2023-07-24T08:53:23;18.50;1.00
2463;DHT22;1243;54.298;10.172;2023-07-24T08:55:50;18.40;1.00
2463;DHT22;1243;54.298;10.172;2023-07-24T08:58:17;18.40;1.00
2463;DHT22;1243;54.298;10.172;2023-07-24T09:00:43;18.50;1.00
2463;DHT22;1243;54.298;10.172;2023-07-24T09:03:09;18.50;1.00
2463;DHT22;1243;54.298;10.172;2023-07-24T09:05:35;18.60;1.00
2463;DHT22;1243;54.298;10.172;2023-07-24T09:08:01;18.60;1.00
2463;DHT22;1243;54.298;10.172;2023-07-24T09:10:27;18.70;1.00
2463;DHT22;1243;54.298;10.172;2023-07-24T09:12:54;18.70;1.00
2463;DHT22;1243;54.298;10.172;2023-07-24T09:15:20;18.70;1.00
2463;DHT22;1243;54.298;10.172;2023-07-24T09:17:49;18.70;1.00
2463;DHT22;1243;54.298;10.172;2023-07-24T09:20:16;18.70;1.00
2463;DHT22;1243;54.298;10.172;2023-07-24T09:22:52;18.70;1.00
2463;DHT22;1243;54.298;10.172;2023-07-24T09:25:18;18.80;1.00
2463;DHT22;1243;54.298;10.172;2023-07-24T09:27:44;18.80;1.00
2463;DHT22;1243;54.298;10.172;2023-07-24T09:30:13;18.80;1.00
2463;DHT22;1243;54.298;10.172;2023-07-24T09:32:40;18.80;1.00
2463;DHT22;1243;54.298;10.172;2023-07-24T09:35:18;19.00;1.00
2463;DHT22;1243;54.298;10.172;2023-07-24T09:37:45;19.10;1.00
2463;DHT22;1243;54.298;10.172;2023-07-24T09:40:13;19.10;1.00
2463;DHT22;1243;54.298;10.172;2023-07-24T09:42:39;19.30;1.00
2463;DHT22;1243;54.298;10.172;2023-07-24T09:45:06;19.40;1.00
2463;DHT22;1243;54.298;10.172;2023-07-24T09:47:34;19.60;1.00
2463;DHT22;1243;54.298;10.172;2023-07-24T09:50:00;19.80;1.00
2463;DHT22;1243;54.298;10.172;2023-07-24T09:52:30;19.90;1.00
2463;DHT22;1243;54.298;10.172;2023-07-24T09:55:15;20.10;99.90
2463;DHT22;1243;54.298;10.172;2023-07-24T09:57:44;20.20;99.90
2463;DHT22;1243;54.298;10.172;2023-07-24T10:00:11;20.20;99.90
2463;DHT22;1243;54.298;10.172;2023-07-24T10:02:38;20.10;99.90
2463;DHT22;1243;54.298;10.172;2023-07-24T10:05:04;20.10;99.90
2463;DHT22;1243;54.298;10.172;2023-07-24T10:07:31;20.00;99.90
2463;DHT22;1243;54.298;10.172;2023-07-24T10:09:57;19.90;99.90
2463;DHT22;1243;54.298;10.172;2023-07-24T10:12:24;20.00;99.90
2463;DHT22;1243;54.298;10.172;2023-07-24T10:14:54;20.30;99.90
2463;DHT22;1243;54.298;10.172;2023-07-24T10:17:37;20.60;99.90
2463;DHT22;1243;54.298;10.172;2023-07-24T10:20:07;20.80;99.90
2463;DHT22;1243;54.298;10.172;2023-07-24T10:22:33;20.80;99.90
2463;DHT22;1243;54.298;10.172;2023-07-24T10:24:59;20.80;99.90
2463;DHT22;1243;54.298;10.172;2023-07-24T10:27:25;20.80;99.90
2463;DHT22;1243;54.298;10.172;2023-07-24T10:30:01;21.00;99.90
2463;DHT22;1243;54.298;10.172;2023-07-24T10:32:32;21.10;99.90
2463;DHT22;1243;54.298;10.172;2023-07-24T10:35:05;21.20;99.90
2463;DHT22;1243;54.298;10.172;2023-07-24T10:37:36;21.30;99.90
2463;DHT22;1243;54.298;10.172;2023-07-24T10:40:03;21.10;96.10
2463;DHT22;1243;54.298;10.172;2023-07-24T10:42:31;21.20;96.20
2463;DHT22;1243;54.298;10.172;2023-07-24T10:45:17;21.50;96.30
2463;DHT22;1243;54.298;10.172;2023-07-24T10:47:43;21.80;96.40
2463;DHT22;1243;54.298;10.172;2023-07-24T10:50:08;21.80;81.50
2463;DHT22;1243;54.298;10.172;2023-07-24T10:52:34;22.10;87.30
2463;DHT22;1243;54.298;10.172;2023-07-24T10:55:03;22.60;72.40
2463;DHT22;1243;54.298;10.172;2023-07-24T10:57:30;23.00;13.20
2463;DHT22;1243;54.298;10.172;2023-07-24T10:59:56;23.10;1.00
2463;DHT22;1243;54.298;10.172;2023-07-24T11:02:22;23.10;1.00
2463;DHT22;1243;54.298;10.172;2023-07-24T11:04:48;23.10;1.00
2463;DHT22;1243;54.298;10.172;2023-07-24T11:07:14;23.10;1.00
2463;DHT22;1243;54.298;10.172;2023-07-24T11:09:41;22.90;1.00
2463;DHT22;1243;54.298;10.172;2023-07-24T11:12:15;22.70;1.00
2463;DHT22;1243;54.298;10.172;2023-07-24T11:14:52;22.50;1.00
2463;DHT22;1243;54.298;10.172;2023-07-24T11:17:21;22.20;1.00
2463;DHT22;1243;54.298;10.172;2023-07-24T11:19:47;21.90;1.00
2463;DHT22;1243;54.298;10.172;2023-07-24T11:22:14;22.10;1.00
2463;DHT22;1243;54.298;10.172;2023-07-24T11:24:48;22.50;1.00
2463;DHT22;1243;54.298;10.172;2023-07-24T11:27:15;22.60;1.00
2463;DHT22;1243;54.298;10.172;2023-07-24T11:29:48;23.40;1.00
2463;DHT22;1243;54.298;10.172;2023-07-24T11:32:20;24.20;1.00
2463;DHT22;1243;54.298;10.172;2023-07-24T11:34:48;24.20;1.00
2463;DHT22;1243;54.298;10.172;2023-07-24T11:37:14;24.40;1.00
2463;DHT22;1243;54.298;10.172;2023-07-24T11:39:40;24.80;1.00
2463;DHT22;1243;54.298;10.172;2023-07-24T11:42:06;25.00;1.00
2463;DHT22;1243;54.298;10.172;2023-07-24T11:44:32;24.50;1.00
2463;DHT22;1243;54.298;10.172;2023-07-24T11:47:02;24.00;1.00
2463;DHT22;1243;54.298;10.172;2023-07-24T11:49:29;23.60;1.00
2463;DHT22;1243;54.298;10.172;2023-07-24T11:52:05;23.20;1.00
2463;DHT22;1243;54.298;10.172;2023-07-24T11:54:33;23.10;1.00
2463;DHT22;1243;54.298;10.172;2023-07-24T11:56:59;22.90;1.00
2463;DHT22;1243;54.298;10.172;2023-07-24T11:59:25;22.50;1.00
2463;DHT22;1243;54.298;10.172;2023-07-24T12:01:51;22.30;1.00
2463;DHT22;1243;54.298;10.172;2023-07-24T12:04:17;22.20;1.00
2463;DHT22;1243;54.298;10.172;2023-07-24T12:06:43;21.90;1.00
2463;DHT22;1243;54.298;10.172;2023-07-24T12:09:11;21.40;1.00
2463;DHT22;1243;54.298;10.172;2023-07-24T12:11:44;21.00;1.00
2463;DHT22;1243;54.298;10.172;2023-07-24T12:14:13;20.60;1.00
2463;DHT22;1243;54.298;10.172;2023-07-24T12:16:39;21.00;96.10
2463;DHT22;1243;54.298;10.172;2023-07-24T12:19:05;21.90;99.90
2463;DHT22;1243;54.298;10.172;2023-07-24T12:21:31;23.10;99.90
2463;DHT22;1243;54.298;10.172;2023-07-24T12:23:56;24.30;84.20
2463;DHT22;1243;54.298;10.172;2023-07-24T12:26:22;25.40;18.50
2463;DHT22;1243;54.298;10.172;2023-07-24T12:28:50;26.30;1.00
2463;DHT22;1243;54.298;10.172;2023-07-24T12:31:16;27.20;1.00
2463;DHT22;1243;54.298;10.172;2023-07-24T12:33:42;27.70;1.00
2463;DHT22;1243;54.298;10.172;2023-07-24T12:36:08;28.00;1.00
2463;DHT22;1243;54.298;10.172;2023-07-24T12:38:34;27.80;1.00
2463;DHT22;1243;54.298;10.172;2023-07-24T12:41:00;27.10;1.00
2463;DHT22;1243;54.298;10.172;2023-07-24T12:43:26;26.10;1.00
2463;DHT22;1243;54.298;10.172;2023-07-24T12:45:54;24.90;1.00
2463;DHT22;1243;54.298;10.172;2023-07-24T12:48:21;23.80;1.00
2463;DHT22;1243;54.298;10.172;2023-07-24T12:50:48;23.00;1.00
2463;DHT22;1243;54.298;10.172;2023-07-24T12:53:14;22.60;1.00
2463;DHT22;1243;54.298;10.172;2023-07-24T12:55:41;22.40;1.00
2463;DHT22;1243;54.298;10.172;2023-07-24T12:58:08;22.70;1.00
2463;DHT22;1243;54.298;10.172;2023-07-24T13:00:35;22.90;1.00
2463;DHT22;1243;54.298;10.172;2023-07-24T13:03:02;23.10;1.00
2463;DHT22;1243;54.298;10.172;2023-07-24T13:05:30;23.10;1.00
2463;DHT22;1243;54.298;10.172;2023-07-24T13:07:58;22.70;1.00
2463;DHT22;1243;54.298;10.172;2023-07-24T13:10:26;22.60;1.00
2463;DHT22;1243;54.298;10.172;2023-07-24T13:12:51;22.60;1.00
2463;DHT22;1243;54.298;10.172;2023-07-24T13:15:19;22.50;1.00
2463;DHT22;1243;54.298;10.172;2023-07-24T13:17:46;22.20;1.00
2463;DHT22;1243;54.298;10.172;2023-07-24T13:20:16;22.10;1.00
2463;DHT22;1243;54.298;10.172;2023-07-24T13:22:43;22.10;1.00
2463;DHT22;1243;54.298;10.172;2023-07-24T13:25:13;22.10;1.00
2463;DHT22;1243;54.298;10.172;2023-07-24T13:27:40;22.10;1.00
2463;DHT22;1243;54.298;10.172;2023-07-24T13:30:07;22.20;1.00
2463;DHT22;1243;54.298;10.172;2023-07-24T13:32:34;22.20;1.00
2463;DHT22;1243;54.298;10.172;2023-07-24T13:35:00;22.00;1.00
2463;DHT22;1243;54.298;10.172;2023-07-24T13:37:26;21.90;1.00
2463;DHT22;1243;54.298;10.172;2023-07-24T13:39:52;21.90;1.00
2463;DHT22;1243;54.298;10.172;2023-07-24T13:42:19;21.90;1.00
2463;DHT22;1243;54.298;10.172;2023-07-24T13:44:44;22.20;1.00
2463;DHT22;1243;54.298;10.172;2023-07-24T13:47:10;22.70;1.00
2463;DHT22;1243;54.298;10.172;2023-07-24T13:49:36;23.40;1.00
2463;DHT22;1243;54.298;10.172;2023-07-24T13:52:01;23.80;1.00
2463;DHT22;1243;54.298;10.172;2023-07-24T13:54:27;24.30;1.00
2463;DHT22;1243;54.298;10.172;2023-07-24T13:56:53;24.60;1.00
2463;DHT22;1243;54.298;10.172;2023-07-24T13:59:18;24.70;1.00
2463;DHT22;1243;54.298;10.172;2023-07-24T14:01:44;24.20;1.00
2463;DHT22;1243;54.298;10.172;2023-07-24T14:04:10;23.90;1.00
2463;DHT22;1243;54.298;10.172;2023-07-24T14:06:37;23.80;1.00
2463;DHT22;1243;54.298;10.172;2023-07-24T14:09:03;23.60;1.00
2463;DHT22;1243;54.298;10.172;2023-07-24T14:11:30;23.70;1.00
2463;DHT22;1243;54.298;10.172;2023-07-24T14:13:56;23.90;1.00
2463;DHT22;1243;54.298;10.172;2023-07-24T14:16:21;23.90;1.00
2463;DHT22;1243;54.298;10.172;2023-07-24T14:18:47;24.10;1.00
2463;DHT22;1243;54.298;10.172;2023-07-24T14:21:13;23.90;1.00
2463;DHT22;1243;54.298;10.172;2023-07-24T14:23:38;23.80;1.00
2463;DHT22;1243;54.298;10.172;2023-07-24T14:26:04;23.50;1.00
2463;DHT22;1243;54.298;10.172;2023-07-24T14:28:30;23.50;1.00
2463;DHT22;1243;54.298;10.172;2023-07-24T14:30:55;23.80;1.00
2463;DHT22;1243;54.298;10.172;2023-07-24T14:33:21;23.90;1.00
2463;DHT22;1243;54.298;10.172;2023-07-24T14:35:47;24.10;1.00
2463;DHT22;1243;54.298;10.172;2023-07-24T14:38:13;24.00;1.00
2463;DHT22;1243;54.298;10.172;2023-07-24T14:40:39;24.00;1.00
2463;DHT22;1243;54.298;10.172;2023-07-24T14:43:05;23.90;1.00
2463;DHT22;1243;54.298;10.172;2023-07-24T14:45:30;23.80;1.00
2463;DHT22;1243;54.298;10.172;2023-07-24T14:47:56;23.60;1.00
2463;DHT22;1243;54.298;10.172;2023-07-24T14:50:23;23.30;1.00
2463;DHT22;1243;54.298;10.172;2023-07-24T14:52:49;23.40;1.00
2463;DHT22;1243;54.298;10.172;2023-07-24T14:55:15;23.40;1.00
2463;DHT22;1243;54.298;10.172;2023-07-24T14:57:41;23.50;1.00
2463;DHT22;1243;54.298;10.172;2023-07-24T15:00:07;23.70;1.00
2463;DHT22;1243;54.298;10.172;2023-07-24T15:02:34;23.80;1.00
2463;DHT22;1243;54.298;10.172;2023-07-24T15:04:59;23.90;1.00
2463;DHT22;1243;54.298;10.172;2023-07-24T15:07:25;23.60;1.00
2463;DHT22;1243;54.298;10.172;2023-07-24T15:09:51;23.40;1.00
2463;DHT22;1243;54.298;10.172;2023-07-24T15:12:16;23.10;1.00
2463;DHT22;1243;54.298;10.172;2023-07-24T15:14:42;22.90;1.00
2463;DHT22;1243;54.298;10.172;2023-07-24T15:17:08;22.60;1.00
2463;DHT22;1243;54.298;10.172;2023-07-24T15:19:33;22.40;1.00
2463;DHT22;1243;54.298;10.172;2023-07-24T15:22:01;22.30;1.00
2463;DHT22;1243;54.298;10.172;2023-07-24T15:24:26;22.20;1.00
2463;DHT22;1243;54.298;10.172;2023-07-24T15:26:52;22.00;1.00
2463;DHT22;1243;54.298;10.172;2023-07-24T15:29:18;21.90;1.00
2463;DHT22;1243;54.298;10.172;2023-07-24T15:31:44;21.80;1.00
2463;DHT22;1243;54.298;10.172;2023-07-24T15:34:09;21.70;1.00
2463;DHT22;1243;54.298;10.172;2023-07-24T15:36:35;21.60;1.00
2463;DHT22;1243;54.298;10.172;2023-07-24T15:39:03;21.50;1.00
2463;DHT22;1243;54.298;10.172;2023-07-24T15:41:35;21.40;1.00
2463;DHT22;1243;54.298;10.172;2023-07-24T15:44:07;21.40;1.00
2463;DHT22;1243;54.298;10.172;2023-07-24T15:46:33;21.30;1.00
2463;DHT22;1243;54.298;10.172;2023-07-24T15:48:59;21.20;1.00
2463;DHT22;1243;54.298;10.172;2023-07-24T15:51:26;21.10;1.00
2463;DHT22;1243;54.298;10.172;2023-07-24T15:53:52;21.10;1.00
2463;DHT22;1243;54.298;10.172;2023-07-24T15:56:19;21.00;1.00
2463;DHT22;1243;54.298;10.172;2023-07-24T15:58:46;21.00;1.00